createdAt,value
2022-08-22T00:00:19.152Z,99898.84
2022-08-22T00:02:59.713Z,99873.13
2022-08-22T00:03:02.035Z,99869.56
2022-08-22T00:03:10.012Z,99868.03
2022-08-22T00:03:15.318Z,99893.41
2022-08-22T00:05:54.532Z,99904.59
2022-08-22T00:08:33.836Z,99898.56
2022-08-22T00:11:29.374Z,99901.88
2022-08-22T00:14:01.991Z,99900.50
2022-08-22T00:16:34.329Z,99891.75
2022-08-22T00:19:08.291Z,99893.66
2022-08-22T00:21:47.777Z,99895.84
2022-08-22T00:24:21.068Z,99898.59
2022-08-22T00:26:53.971Z,99901.31
2022-08-22T00:29:27.766Z,99896.66
2022-08-22T00:32:15.802Z,99898.56
2022-08-22T00:34:51.235Z,99893.66
2022-08-22T00:37:27.504Z,99911.44
2022-08-22T00:40:09.075Z,99903.22
2022-08-22T00:42:54.858Z,99912.00
2022-08-22T00:45:30.879Z,99918.53
2022-08-22T00:48:03.975Z,99914.97
2022-08-22T00:50:49.444Z,99916.34
2022-08-22T00:53:31.948Z,99925.13
2022-08-22T00:56:17.488Z,99934.69
2022-08-22T00:59:23.415Z,99935.50
2022-08-22T01:02:09.934Z,99932.50
2022-08-22T01:04:55.278Z,99928.41
2022-08-22T01:07:25.080Z,99942.88
2022-08-22T01:10:24.070Z,99932.22
2022-08-22T01:13:02.262Z,99930.03
2022-08-22T01:15:30.709Z,99950.78
2022-08-22T01:18:09.520Z,99927.31
2022-08-22T01:20:55.595Z,99931.16
2022-08-22T01:23:37.688Z,99927.56
2022-08-22T01:26:22.754Z,99934.69
2022-08-22T01:29:28.373Z,99922.09
2022-08-22T01:32:08.001Z,99914.47
2022-08-22T01:34:40.910Z,99905.44
2022-08-22T01:37:33.859Z,99910.91
2022-08-22T01:40:05.800Z,99902.16
2022-08-22T01:42:35.395Z,99903.78
2022-08-22T01:45:05.190Z,99901.63
2022-08-22T01:47:37.490Z,99887.16
2022-08-22T01:50:23.232Z,99883.31
2022-08-22T01:53:02.466Z,99872.69
2022-08-22T01:55:29.361Z,99878.69
2022-08-22T01:57:58.934Z,99881.41
2022-08-22T02:00:35.207Z,99877.31
2022-08-22T02:03:03.519Z,99911.97
2022-08-22T02:05:37.470Z,99899.41
2022-08-22T02:08:23.388Z,99885.22
2022-08-22T02:11:02.453Z,99882.78
2022-08-22T02:13:29.332Z,99882.75
2022-08-22T02:16:27.322Z,99875.34
2022-08-22T02:19:01.002Z,99885.16
2022-08-22T02:21:47.257Z,99889.53
2022-08-22T02:24:17.054Z,99890.06
2022-08-22T02:27:04.519Z,99893.59
2022-08-22T02:29:31.297Z,99895.22
2022-08-22T02:32:01.647Z,99905.84
2022-08-22T02:34:44.087Z,99902.31
2022-08-22T02:37:16.961Z,99906.97
2022-08-22T02:39:43.818Z,99908.88
2022-08-22T02:42:16.491Z,99911.31
2022-08-22T02:44:48.349Z,99904.78
2022-08-22T02:47:16.693Z,99905.34
2022-08-22T02:49:47.492Z,99904.25
2022-08-22T02:52:34.202Z,99906.44
2022-08-22T02:55:06.502Z,99901.28
2022-08-22T02:57:39.307Z,99910.81
2022-08-22T03:00:39.072Z,99906.75
2022-08-22T03:03:07.152Z,99914.13
2022-08-22T03:05:36.572Z,99913.03
2022-08-22T03:08:05.752Z,99915.53
2022-08-22T03:10:44.411Z,99920.69
2022-08-22T03:13:17.089Z,99920.44
2022-08-22T03:15:49.250Z,99919.34
2022-08-22T03:18:31.498Z,99929.19
2022-08-22T03:21:00.514Z,99923.44
2022-08-22T03:23:39.468Z,99930.56
2022-08-22T03:26:29.224Z,99921.25
2022-08-22T03:29:31.256Z,99922.63
2022-08-22T03:32:24.252Z,99928.38
2022-08-22T03:34:58.433Z,99936.56
2022-08-22T03:37:40.853Z,99923.19
2022-08-22T03:40:19.860Z,99926.75
2022-08-22T03:42:52.656Z,99919.91
2022-08-22T03:45:38.677Z,99923.22
2022-08-22T03:48:17.924Z,99921.28
2022-08-22T03:51:03.540Z,99922.41
2022-08-22T03:53:33.593Z,99913.66
2022-08-22T03:56:09.556Z,99924.84
2022-08-22T03:58:45.604Z,99925.69
2022-08-22T04:01:35.879Z,99924.84
2022-08-22T04:04:05.802Z,99926.50
2022-08-22T04:06:41.600Z,99919.94
2022-08-22T04:09:11.380Z,99921.59
2022-08-22T04:11:57.792Z,99928.94
2022-08-22T04:14:44.299Z,99933.88
2022-08-22T04:17:11.201Z,99925.41
2022-08-22T04:19:54.336Z,99934.69
2022-08-22T04:22:26.018Z,99932.50
2022-08-22T04:24:55.992Z,99933.88
2022-08-22T04:27:40.670Z,99937.13
2022-08-22T04:30:13.721Z,99939.88
2022-08-22T04:33:00.182Z,99940.97
2022-08-22T04:35:31.861Z,99939.59
2022-08-22T04:38:01.904Z,99932.50
2022-08-22T04:40:28.705Z,99927.31
2022-08-22T04:42:59.722Z,99925.69
2022-08-22T04:45:29.872Z,99939.59
2022-08-22T04:48:01.633Z,99945.63
2022-08-22T04:50:57.960Z,99934.94
2022-08-22T04:53:27.458Z,99919.66
2022-08-22T04:55:54.276Z,99927.28
2022-08-22T04:58:23.889Z,99922.91
2022-08-22T05:00:56.975Z,99922.09
2022-08-22T05:03:24.368Z,99919.88
2022-08-22T05:05:51.768Z,99905.91
2022-08-22T05:08:21.553Z,99909.41
2022-08-22T05:10:48.471Z,99909.88
2022-08-22T05:13:30.318Z,99907.31
2022-08-22T05:15:59.027Z,99902.59
2022-08-22T05:18:29.520Z,99902.28
2022-08-22T05:20:57.601Z,99898.41
2022-08-22T05:23:27.725Z,99909.81
2022-08-22T05:25:56.623Z,99909.22
2022-08-22T05:28:54.610Z,99911.28
2022-08-22T05:31:24.044Z,99900.56
2022-08-22T05:33:52.304Z,99910.06
2022-08-22T05:36:38.531Z,99911.13
2022-08-22T05:39:10.957Z,99923.38
2022-08-22T05:41:38.867Z,99936.00
2022-08-22T05:44:07.584Z,99929.41
2022-08-22T05:46:42.455Z,99923.66
2022-08-22T05:49:31.990Z,99917.34
2022-08-22T05:52:04.848Z,99929.72
2022-08-22T05:54:36.269Z,99921.53
2022-08-22T05:57:11.690Z,99919.13
2022-08-22T05:59:38.924Z,99923.75
2022-08-22T06:02:22.049Z,99916.56
2022-08-22T06:04:51.908Z,99925.13
2022-08-22T06:07:19.293Z,99928.91
2022-08-22T06:09:46.250Z,99920.09
2022-08-22T06:12:29.609Z,99925.03
2022-08-22T06:14:59.525Z,99936.13
2022-08-22T06:17:31.714Z,99929.25
2022-08-22T06:19:58.634Z,99924.69
2022-08-22T06:22:26.449Z,99930.06
2022-08-22T06:24:55.212Z,99935.50
2022-08-22T06:27:23.386Z,99946.41
2022-08-22T06:29:58.467Z,99938.22
2022-08-22T06:32:38.238Z,99932.03
2022-08-22T06:35:16.587Z,99936.16
2022-08-22T06:37:45.182Z,99943.31
2022-08-22T06:40:20.078Z,99931.09
2022-08-22T06:42:49.629Z,99934.94
2022-08-22T06:45:17.994Z,99944.78
2022-08-22T06:47:50.220Z,99948.66
2022-08-22T06:50:23.783Z,99949.97
2022-08-22T06:52:58.572Z,99948.44
2022-08-22T06:55:26.903Z,99948.34
2022-08-22T06:57:55.153Z,99941.63
2022-08-22T07:00:22.179Z,99946.13
2022-08-22T07:02:59.378Z,99942.19
2022-08-22T07:05:29.996Z,99929.28
2022-08-22T07:07:57.270Z,99937.25
2022-08-22T07:10:24.502Z,99940.28
2022-08-22T07:12:52.561Z,99940.66
2022-08-22T07:15:36.700Z,99949.03
2022-08-22T07:18:24.959Z,99936.88
2022-08-22T07:20:56.331Z,99939.34
2022-08-22T07:23:34.071Z,99940.63
2022-08-22T07:26:04.022Z,99944.13
2022-08-22T07:28:36.833Z,99945.19
2022-08-22T07:31:35.296Z,99941.94
2022-08-22T07:34:15.069Z,99955.69
2022-08-22T07:36:50.179Z,99950.25
2022-08-22T07:39:22.674Z,99948.47
2022-08-22T07:41:59.728Z,99953.88
2022-08-22T07:44:28.945Z,99953.09
2022-08-22T07:47:01.233Z,99944.13
2022-08-22T07:49:32.701Z,99948.00
2022-08-22T07:52:01.183Z,99951.94
2022-08-22T07:54:31.909Z,99943.31
2022-08-22T07:57:02.704Z,99947.00
2022-08-22T07:59:29.903Z,99946.59
2022-08-22T08:01:58.554Z,99942.91
2022-08-22T08:04:29.114Z,99938.06
2022-08-22T08:06:56.840Z,99944.88
2022-08-22T08:09:23.975Z,99943.91
2022-08-22T08:11:51.822Z,99949.34
2022-08-22T08:14:20.073Z,99947.31
2022-08-22T08:16:56.748Z,99949.75
2022-08-22T08:19:24.957Z,99944.34
2022-08-22T08:21:53.709Z,99940.53
2022-08-22T08:24:25.754Z,99941.44
2022-08-22T08:27:13.366Z,99940.81
2022-08-22T08:29:45.793Z,99939.34
2022-08-22T08:32:12.898Z,99948.75
2022-08-22T08:34:42.746Z,99946.41
2022-08-22T08:37:12.999Z,99948.22
2022-08-22T08:39:50.942Z,99947.03
2022-08-22T08:42:41.309Z,99950.94
2022-08-22T08:45:17.395Z,99949.28
2022-08-22T08:47:52.745Z,99951.34
2022-08-22T08:50:31.968Z,99947.19
2022-08-22T08:53:24.104Z,99945.16
2022-08-22T08:55:54.162Z,99945.97
2022-08-22T08:58:28.184Z,99950.50
2022-08-22T09:01:02.296Z,99952.69
2022-08-22T09:04:07.159Z,99955.88
2022-08-22T09:07:02.475Z,99939.59
2022-08-22T09:09:32.095Z,99951.03
2022-08-22T09:12:20.310Z,99957.28
2022-08-22T09:15:14.484Z,99954.53
2022-08-22T09:17:48.581Z,99951.44
2022-08-22T09:20:35.874Z,99958.81
2022-08-22T09:23:18.260Z,99960.22
2022-08-22T09:25:51.455Z,99960.78
2022-08-22T09:28:29.466Z,99954.06
2022-08-22T09:34:24.159Z,99953.41
2022-08-22T09:37:08.070Z,99941.50
2022-08-22T09:42:44.882Z,99946.97
2022-08-22T09:45:37.009Z,99948.63
2022-08-22T09:48:26.634Z,99950.28
2022-08-22T09:52:33.263Z,99953.75
2022-08-22T09:54:05.430Z,99939.41
2022-08-22T09:56:50.866Z,99944.31
2022-08-22T09:59:40.835Z,99943.44
2022-08-22T10:02:58.254Z,99931.75
2022-08-22T10:05:56.888Z,99938.84
2022-08-22T10:08:37.829Z,99931.16
2022-08-22T10:11:11.369Z,99937.28
2022-08-22T10:13:57.305Z,99941.19
2022-08-22T10:16:33.989Z,99946.50
2022-08-22T10:19:23.028Z,99947.72
2022-08-22T10:21:50.585Z,99934.75
2022-08-22T10:24:25.492Z,99931.50
2022-08-22T10:26:59.111Z,99934.94
2022-08-22T10:29:40.385Z,99935.63
2022-08-22T10:32:14.394Z,99927.00
2022-08-22T10:34:43.459Z,99941.41
2022-08-22T10:38:04.067Z,99938.28
2022-08-22T10:40:41.628Z,99932.41
2022-08-22T10:43:29.225Z,99931.59
2022-08-22T10:46:12.692Z,99931.44
2022-08-22T10:48:50.879Z,99930.00
2022-08-22T10:51:24.122Z,99929.22
2022-08-22T10:53:59.587Z,99928.09
2022-08-22T10:56:30.028Z,99920.66
2022-08-22T10:59:06.602Z,99937.72
2022-08-22T11:01:42.299Z,99929.22
2022-08-22T11:04:33.148Z,99929.91
2022-08-22T11:07:06.279Z,99925.59
2022-08-22T11:09:45.219Z,99925.56
2022-08-22T11:12:15.134Z,99926.19
2022-08-22T11:15:15.507Z,99942.38
2022-08-22T11:18:13.090Z,99930.81
2022-08-22T11:20:47.843Z,99925.63
2022-08-22T11:23:26.011Z,99915.56
2022-08-22T11:25:54.104Z,99905.09
2022-08-22T11:28:36.083Z,99914.88
2022-08-22T11:31:03.769Z,99912.63
2022-08-22T11:33:47.430Z,99903.06
2022-08-22T11:36:33.529Z,99923.56
2022-08-22T11:39:03.339Z,99909.41
2022-08-22T11:41:32.762Z,99904.78
2022-08-22T11:44:20.143Z,99902.13
2022-08-22T11:46:51.193Z,99895.94
2022-08-22T11:49:36.354Z,99914.28
2022-08-22T11:52:11.421Z,99913.94
2022-08-22T11:54:46.527Z,99904.44
2022-08-22T11:57:27.862Z,99908.34
2022-08-22T12:00:27.294Z,99896.16
2022-08-22T12:03:08.401Z,99903.53
2022-08-22T12:05:54.075Z,99899.66
2022-08-22T12:08:31.127Z,99902.56
2022-08-22T12:11:01.396Z,99909.31
2022-08-22T12:13:38.882Z,99905.69
2022-08-22T12:16:27.124Z,99901.28
2022-08-22T12:19:22.876Z,99900.97
2022-08-22T12:22:07.697Z,99896.47
2022-08-22T12:29:00.794Z,99907.94
2022-08-22T12:31:35.080Z,99903.53
2022-08-22T12:34:15.534Z,99904.59
2022-08-22T12:36:51.224Z,99900.34
2022-08-22T12:39:34.420Z,99905.22
2022-08-22T12:42:04.254Z,99906.81
2022-08-22T12:45:20.381Z,99902.56
2022-08-22T12:48:16.792Z,99906.53
2022-08-22T12:50:54.283Z,99894.44
2022-08-22T12:59:44.484Z,99900.63
2022-08-22T13:02:34.006Z,99894.00
2022-08-22T13:05:11.046Z,99893.09
2022-08-22T13:07:40.772Z,99885.25
2022-08-22T13:10:20.072Z,99891.97
2022-08-22T13:12:49.557Z,99899.50
2022-08-22T13:15:36.194Z,99897.97
2022-08-22T13:18:29.610Z,99887.72
2022-08-22T13:21:05.211Z,99893.50
2022-08-22T13:23:34.369Z,99896.69
2022-08-22T13:26:43.307Z,99895.44
2022-08-22T13:29:39.614Z,99893.59
2022-08-22T13:32:23.442Z,99892.44
2022-08-22T13:34:56.629Z,99900.44
2022-08-22T13:37:33.660Z,99896.63
2022-08-22T13:40:08.394Z,99904.75
2022-08-22T13:42:39.990Z,99903.34
2022-08-22T13:45:14.958Z,99898.09
2022-08-22T13:47:53.726Z,99899.28
2022-08-22T13:50:30.066Z,99895.78
2022-08-22T13:54:00.594Z,99892.06
2022-08-22T13:56:55.469Z,99896.72
2022-08-22T14:00:28.698Z,99889.41
2022-08-22T14:03:28.443Z,99892.41
2022-08-22T15:25:23.199Z,99885.38
2022-08-22T15:28:06.991Z,99887.00
2022-08-22T15:33:34.930Z,99887.78
2022-08-22T15:36:15.862Z,99887.50
2022-08-22T15:38:53.168Z,99895.16
2022-08-22T15:41:31.556Z,99899.59
2022-08-22T15:44:03.830Z,99902.06
2022-08-22T15:46:32.337Z,99894.63
2022-08-22T15:49:26.088Z,99891.53
2022-08-22T15:52:00.726Z,99888.81
2022-08-22T15:54:57.021Z,99893.56
2022-08-22T15:57:26.348Z,99899.72
2022-08-22T16:00:05.179Z,99897.31
2022-08-22T16:02:42.018Z,99900.75
2022-08-22T16:05:11.691Z,99900.28
2022-08-22T16:07:44.856Z,99902.25
2022-08-22T16:10:24.229Z,99910.38
2022-08-22T16:13:24.518Z,99907.47
2022-08-22T16:15:57.168Z,99907.47
2022-08-22T16:18:51.363Z,99904.06
2022-08-22T16:21:26.922Z,99902.91
2022-08-22T16:26:57.697Z,99908.13
2022-08-22T16:29:41.288Z,99901.66
2022-08-22T16:32:12.424Z,99903.75
2022-08-22T16:46:42.037Z,99921.53
2022-08-22T16:55:43.731Z,99918.72
2022-08-22T16:58:57.523Z,99920.78
2022-08-22T17:01:38.313Z,99931.47
2022-08-22T17:10:12.393Z,99938.91
2022-08-22T17:12:54.142Z,99932.41
2022-08-22T17:31:27.371Z,99942.34
2022-08-22T17:37:40.468Z,99941.81
2022-08-22T17:46:03.644Z,99945.97
2022-08-22T18:02:32.482Z,99955.50
2022-08-22T18:05:04.015Z,99957.44
2022-08-22T18:07:54.647Z,99953.03
2022-08-22T18:11:02.706Z,99954.47
2022-08-22T18:14:05.001Z,99955.63
2022-08-22T18:16:41.029Z,99963.38
2022-08-22T18:19:25.505Z,99958.28
2022-08-22T18:29:05.296Z,99966.28
2022-08-22T18:34:59.169Z,99966.38
2022-08-22T18:41:19.926Z,99957.59
2022-08-22T18:43:48.467Z,99961.50
2022-08-22T18:55:53.471Z,99959.38
2022-08-22T19:05:33.104Z,99958.34
2022-08-22T19:08:28.820Z,99955.69
2022-08-22T19:11:16.223Z,99954.56
2022-08-22T19:16:47.160Z,99963.16
2022-08-22T19:33:48.121Z,99961.00
2022-08-22T19:36:36.882Z,99964.97
2022-08-22T19:39:32.669Z,99975.59
2022-08-22T19:42:04.351Z,99966.59
2022-08-22T19:44:40.989Z,99970.56
2022-08-22T19:47:11.595Z,99967.34
2022-08-22T19:50:05.419Z,99966.03
2022-08-22T19:52:47.219Z,99963.38
2022-08-22T19:55:23.282Z,99969.28
2022-08-22T20:06:40.833Z,99964.06
2022-08-22T20:09:07.769Z,99964.38
2022-08-22T20:12:01.660Z,99970.19
2022-08-22T20:14:35.189Z,99971.28
2022-08-22T20:17:20.467Z,99977.91
2022-08-22T20:22:38.956Z,99985.13
2022-08-22T20:25:42.291Z,99978.53
2022-08-22T20:28:05.297Z,99982.81
2022-08-22T20:30:52.043Z,99993.00
2022-08-22T20:33:25.322Z,99991.97
2022-08-22T20:35:59.647Z,99997.28
2022-08-22T20:38:40.185Z,99995.41
2022-08-22T20:41:37.614Z,100000.72
2022-08-22T20:44:04.673Z,99994.69
2022-08-22T20:46:33.326Z,99996.41
2022-08-22T20:49:00.685Z,99993.97
2022-08-22T20:51:30.368Z,99998.66
2022-08-22T20:53:58.665Z,99993.06
2022-08-22T20:56:35.800Z,99998.88
2022-08-22T20:59:23.284Z,100005.78
2022-08-22T21:01:57.955Z,100006.91
2022-08-22T21:04:26.016Z,100005.34
2022-08-22T21:06:59.134Z,100005.41
2022-08-22T21:09:44.691Z,100009.59
2022-08-22T21:12:11.877Z,100011.88
2022-08-22T21:14:46.282Z,100010.34
2022-08-22T21:17:17.642Z,100016.22
2022-08-22T21:19:44.607Z,100022.34
2022-08-22T21:22:20.063Z,100020.28
2022-08-22T21:24:49.878Z,100018.47
2022-08-22T21:27:19.267Z,100023.22
2022-08-22T21:29:46.319Z,100030.41
2022-08-22T21:32:27.383Z,100026.09
2022-08-22T21:34:54.616Z,100028.59
2022-08-22T21:37:37.990Z,100032.53
2022-08-22T21:40:08.308Z,100028.72
2022-08-22T21:42:43.736Z,100027.91
2022-08-22T21:45:25.893Z,100038.38
2022-08-22T21:47:53.174Z,100037.03
2022-08-22T21:50:25.471Z,100038.16
2022-08-22T21:52:54.986Z,100053.81
2022-08-22T21:55:21.891Z,100052.16
2022-08-22T21:57:53.120Z,100048.06
2022-08-22T22:00:38.966Z,100063.75
2022-08-22T22:03:07.412Z,100058.84
2022-08-22T22:05:34.342Z,100058.31
2022-08-22T22:08:01.431Z,100059.47
2022-08-22T22:10:28.582Z,100061.69
2022-08-22T22:12:56.480Z,100060.59
2022-08-22T22:15:24.365Z,100065.59
2022-08-22T22:17:51.316Z,100073.91
2022-08-22T22:20:18.974Z,100083.78
2022-08-22T22:22:54.457Z,100080.50
2022-08-22T22:25:40.998Z,100072.84
2022-08-22T22:28:17.028Z,100072.91
2022-08-22T22:30:44.326Z,100075.38
2022-08-22T22:33:11.371Z,100081.19
2022-08-22T22:35:39.288Z,100078.19
2022-08-22T22:38:06.687Z,100075.75
2022-08-22T22:40:33.846Z,100075.53
2022-08-22T22:43:01.063Z,100079.13
2022-08-22T22:45:27.982Z,100071.75
2022-08-22T22:47:54.959Z,100077.22
2022-08-22T22:50:21.903Z,100076.19
2022-08-22T22:52:51.526Z,100073.44
2022-08-22T22:55:24.175Z,100077.31
2022-08-22T22:58:03.182Z,100081.19
2022-08-22T23:00:31.504Z,100082.56
2022-08-22T23:02:59.424Z,100077.66
2022-08-22T23:05:26.317Z,100078.50
2022-08-22T23:07:53.189Z,100082.88
2022-08-22T23:10:22.186Z,100078.50
2022-08-22T23:12:49.331Z,100084.84
2022-08-22T23:15:16.888Z,100075.22
2022-08-22T23:17:43.942Z,100073.88
2022-08-22T23:20:11.048Z,100079.94
2022-08-22T23:22:40.678Z,100079.94
2022-08-22T23:25:07.676Z,100084.31
2022-08-22T23:27:34.755Z,100082.97
2022-08-22T23:30:02.501Z,100083.50
2022-08-22T23:32:31.393Z,100078.31
2022-08-22T23:34:58.484Z,100084.88
2022-08-22T23:37:25.390Z,100080.78
2022-08-22T23:39:52.603Z,100081.38
2022-08-22T23:42:19.603Z,100090.66
2022-08-22T23:44:46.580Z,100090.16
2022-08-22T23:47:14.051Z,100090.66
2022-08-22T23:49:41.492Z,100089.63
2022-08-22T23:52:08.812Z,100089.34
2022-08-22T23:54:35.872Z,100091.28
2022-08-22T23:57:03.526Z,100091.03
2022-08-22T23:59:42.338Z,100093.78
